Kennedy, Canada
Current Conditions -  °F | °C
As of 3:00 AM on Sunday 23 Nov 2014 (Local Time) from CYEN Reporting Station
Light Snow Light Snow  
Wind Chill: 20°   Ceiling: 2400
Heat Index: 32°   Visibility: 15mi
Dew Point: 25°   Wind: 21mph
Humidity: 75%   Direction: 270°W
Pressure: 29.28"   Gusts: 32mph
Location:  50.02°N, 102.35°W
Report Text: CYEN 230900Z 27018G28KT 15SM -SN OVC024 00/M04 A2928 RMK SC8SLP936
Loading
Personal Weather Stations






























Interactive Weather Map New forecast layout! Learn more

10-Day Weather Forecast

Advertisements
Track Severe Weather on mobile